Weather History for KLKV - September, 2012

Change the Weather History Date:

Sunday, September 9, 2012

  Actual Average Record
Temperature  
Mean Temperature 63 °F -  
Max Temperature 82 °F 77 °F 94 °F (1943)
Min Temperature 44 °F 44 °F 29 °F (1933)
Degree Days  
Heating Degree Days 2    
Growing Degree Days 13 (Base 50)    
Moisture  
Dew Point 36 °F    
Average Humidity 42    
Maximum Humidity 82    
Minimum Humidity 10    
Precipitation  
Precipitation 0.00 in - - ()
Sea Level Pressure  
Sea Level Pressure 30.06 in    
Wind  
Wind Speed 10 mph (South)    
Max Wind Speed 22 mph    
Max Gust Speed 30 mph    
Visibility 10 miles    
Events      
Averages and records for this station are not official NWS values.
T = Trace of Precipitation, MM = Missing Value Source: NWS Daily Summary

Daily Weather History Graph

Daily Weather History Graph

Search for Another Location

Airport or City:

Trip Planner

Search our weather history database for the weather conditions in past years. The results will help you decide how hot, cold, wet, or windy it might be!

Date:

Astronomy

Sep. 09, 2012 Rise Set
Actual Time 6:35 AM PDT 7:20 PM PDT
Civil Twilight 6:07 AM PDT 7:48 PM PDT
Nautical Twilight 5:34 AM PDT 8:22 PM PDT
Astronomical Twilight 4:59 AM PDT 8:57 PM PDT
Moon 12:04 AM PDT (9/9) 3:14 PM PDT (9/9)
Length of Visible Light 13h 41m
Length of Day
12h 44m
Last Quarter, 38% of the Moon is Illuminated
Sep 9
Last Quarter
Sep 15
New
Sep 22
First Quarter
Sep 29
Full
Oct 8
Last Quarter

Hourly Weather History & Observations

Time (PDT) Temp. Windchill Dew Point Humidity Pressure Visibility Wind Dir Wind Speed Gust Speed Precip Events Conditions
12:15 AM 60.8 °F - 48.2 °F 63% 30.09 in 10.0 mi SSE 11.5 mph - N/A   Clear
12:35 AM 62.6 °F - 48.2 °F 59% 30.09 in 10.0 mi South 10.4 mph - N/A   Clear
12:55 AM 62.6 °F - 50.0 °F 63% 30.09 in 10.0 mi South 12.7 mph - N/A   Clear
1:15 AM 62.6 °F - 48.2 °F 59% 30.09 in 10.0 mi South 11.5 mph - N/A   Clear
1:35 AM 60.8 °F - 50.0 °F 68% 30.09 in 10.0 mi South 10.4 mph - N/A   Clear
1:55 AM 60.8 °F - 51.8 °F 72% 30.09 in 10.0 mi South 10.4 mph - N/A   Clear
2:15 AM 60.8 °F - 48.2 °F 63% 30.09 in 10.0 mi South 11.5 mph - N/A   Clear
2:35 AM 59.0 °F - 50.0 °F 72% 30.08 in 10.0 mi South 10.4 mph - N/A   Clear
2:55 AM 57.2 °F - 50.0 °F 77% 30.08 in 10.0 mi South 10.4 mph - N/A   Clear
3:15 AM 57.2 °F - 48.2 °F 72% 30.08 in 10.0 mi South 9.2 mph - N/A   Clear
3:35 AM 57.2 °F - 46.4 °F 67% 30.09 in 10.0 mi South 9.2 mph - N/A   Clear
3:55 AM 55.4 °F - 46.4 °F 72% 30.09 in 10.0 mi South 9.2 mph - N/A   Clear
4:15 AM 55.4 °F - 46.4 °F 72% 30.08 in 10.0 mi South 9.2 mph - N/A   Clear
4:35 AM 53.6 °F - 46.4 °F 77% 30.08 in 10.0 mi South 9.2 mph - N/A   Clear
4:55 AM 53.6 °F - 44.6 °F 72% 30.08 in 10.0 mi South 9.2 mph - N/A   Clear
5:15 AM 53.6 °F - 44.6 °F 72% 30.08 in 10.0 mi South 9.2 mph - N/A   Clear
5:35 AM 51.8 °F - 44.6 °F 76% 30.08 in 10.0 mi South 10.4 mph - N/A   Clear
5:55 AM 53.6 °F - 46.4 °F 77% 30.08 in 10.0 mi South 9.2 mph - N/A   Clear
6:35 AM 51.8 °F - 46.4 °F 82% 30.08 in 10.0 mi SSE 3.5 mph - N/A   Clear
7:15 AM 51.8 °F - 46.4 °F 82% 30.09 in 10.0 mi Calm Calm - N/A   Clear
7:35 AM 51.8 °F - 44.6 °F 76% 30.09 in 10.0 mi ESE 6.9 mph - N/A   Clear
7:55 AM 55.4 °F - 48.2 °F 77% 30.09 in 10.0 mi SE 8.1 mph - N/A   Clear
8:35 AM 62.6 °F - 48.2 °F 59% 30.09 in 10.0 mi SSE 9.2 mph - N/A   Clear
8:55 AM 64.4 °F - 48.2 °F 56% 30.09 in 10.0 mi SSE 9.2 mph - N/A   Clear
9:15 AM 66.2 °F - 48.2 °F 52% 30.10 in 10.0 mi South 10.4 mph - N/A   Clear
9:35 AM 68.0 °F - 48.2 °F 49% 30.09 in 10.0 mi South 11.5 mph - N/A   Clear
9:55 AM 69.8 °F - 46.4 °F 43% 30.09 in 10.0 mi SSE 13.8 mph 18.4 mph N/A   Clear
10:15 AM 69.8 °F - 46.4 °F 43% 30.09 in 10.0 mi SSE 13.8 mph - N/A   Clear
10:35 AM 71.6 °F - 46.4 °F 41% 30.09 in 10.0 mi South 15.0 mph - N/A   Clear
10:55 AM 73.4 °F - 46.4 °F 38% 30.09 in 10.0 mi SSE 16.1 mph 21.9 mph N/A   Clear
11:15 AM 73.4 °F - 44.6 °F 36% 30.09 in 10.0 mi SSE 16.1 mph 19.6 mph N/A   Clear
11:35 AM 75.2 °F - 44.6 °F 34% 30.08 in 10.0 mi SSE 11.5 mph 19.6 mph N/A   Clear
11:55 AM 75.2 °F - 42.8 °F 31% 30.08 in 10.0 mi SSE 13.8 mph - N/A   Clear
12:15 PM 77.0 °F - 41.0 °F 28% 30.07 in 10.0 mi SSW 15.0 mph 18.4 mph N/A   Clear
12:35 PM 80.6 °F - 37.4 °F 21% 30.07 in 10.0 mi SSW 13.8 mph 20.7 mph N/A   Clear
12:55 PM 80.6 °F - 35.6 °F 20% 30.06 in 10.0 mi SW 13.8 mph 24.2 mph N/A   Clear
1:15 PM 80.6 °F - 33.8 °F 18% 30.06 in 10.0 mi SSW 13.8 mph 24.2 mph N/A   Clear
1:35 PM 80.6 °F - 33.8 °F 18% 30.05 in 10.0 mi SW 13.8 mph 24.2 mph N/A   Clear
1:55 PM 80.6 °F - 30.2 °F 16% 30.05 in 10.0 mi SSW 11.5 mph 21.9 mph N/A   Clear
2:15 PM 80.6 °F - 32.0 °F 17% 30.04 in 10.0 mi SW 16.1 mph 25.3 mph N/A   Clear
2:35 PM 82.4 °F - 30.2 °F 15% 30.03 in 10.0 mi SSW 18.4 mph 24.2 mph N/A   Clear
2:55 PM 82.4 °F - 28.4 °F 14% 30.03 in 10.0 mi SSW 11.5 mph 29.9 mph N/A   Clear
3:15 PM 82.4 °F - 28.4 °F 14% 30.02 in 10.0 mi WSW 15.0 mph 24.2 mph N/A   Clear
3:35 PM 80.6 °F - 26.6 °F 14% 30.02 in 10.0 mi SSW 6.9 mph 28.8 mph N/A   Clear
3:55 PM 82.4 °F - 24.8 °F 12% 30.02 in 10.0 mi SW 21.9 mph 26.5 mph N/A   Clear
4:15 PM 82.4 °F - 23.0 °F 11% 30.01 in 10.0 mi WSW 17.3 mph 26.5 mph N/A   Clear
4:35 PM 80.6 °F - 21.2 °F 11% 30.01 in 10.0 mi SSW 17.3 mph 26.5 mph N/A   Clear
4:55 PM 80.6 °F - 21.2 °F 11% 30.01 in 10.0 mi SW 19.6 mph 25.3 mph N/A   Clear
5:15 PM 80.6 °F - 19.4 °F 10% 30.00 in 10.0 mi SW 17.3 mph - N/A   Clear
5:35 PM 78.8 °F - 19.4 °F 11% 30.00 in 10.0 mi SW 13.8 mph 21.9 mph N/A   Clear
5:55 PM 78.8 °F - 19.4 °F 11% 30.00 in 10.0 mi SSW 15.0 mph - N/A   Clear
6:15 PM 77.0 °F - 17.6 °F 11% 30.00 in 10.0 mi SSW 12.7 mph - N/A   Clear
6:35 PM 75.2 °F - 17.6 °F 11% 29.99 in 10.0 mi SSW 9.2 mph - N/A   Clear
6:55 PM 71.6 °F - 19.4 °F 14% 29.99 in 10.0 mi SSW 8.1 mph - N/A   Clear
7:15 PM 66.2 °F - 21.2 °F 18% 30.00 in 10.0 mi SW 6.9 mph - N/A   Clear
7:35 PM 62.6 °F - 24.8 °F 24% 30.00 in 10.0 mi SW 6.9 mph - N/A   Clear
7:55 PM 60.8 °F - 26.6 °F 27% 30.00 in 10.0 mi WSW 4.6 mph - N/A   Clear
8:15 PM 53.6 °F - 26.6 °F 35% 30.02 in 10.0 mi ENE 4.6 mph - N/A   Clear
8:35 PM 55.4 °F - 28.4 °F 36% 30.03 in 10.0 mi East 4.6 mph - N/A   Clear
8:55 PM 57.2 °F - 28.4 °F 33% 30.04 in 10.0 mi Calm Calm - N/A   Clear
9:15 PM 53.6 °F - 28.4 °F 38% 30.04 in 10.0 mi NE 4.6 mph - N/A   Clear
9:35 PM 53.6 °F - 26.6 °F 35% 30.05 in 10.0 mi Calm Calm - N/A   Clear
9:55 PM 51.8 °F - 28.4 °F 41% 30.05 in 10.0 mi Calm Calm - N/A   Clear
10:15 PM 48.2 °F - 26.6 °F 43% 30.06 in 10.0 mi SE 3.5 mph - N/A   Clear
10:35 PM 48.2 °F - 26.6 °F 43% 30.07 in 10.0 mi Calm Calm - N/A   Clear
10:55 PM 48.2 °F - 24.8 °F 40% 30.07 in 10.0 mi Calm Calm - N/A   Clear
11:15 PM 46.4 °F 45.2 °F 24.8 °F 43% 30.07 in 10.0 mi East 3.5 mph - N/A   Clear
11:35 PM 44.6 °F 42.2 °F 23.0 °F 43% 30.08 in 10.0 mi West 4.6 mph - N/A   Clear
11:55 PM 46.4 °F - 26.6 °F 46% 30.08 in 10.0 mi Calm Calm - N/A   Clear